createdAt,value
2022-12-17T00:01:41.970Z,94.32
2022-12-17T00:04:27.450Z,94.21
2022-12-17T00:07:12.696Z,95.00
2022-12-17T00:09:58.505Z,93.78
2022-12-17T00:12:44.103Z,93.87
2022-12-17T00:15:29.721Z,93.90
2022-12-17T00:18:26.163Z,94.78
2022-12-17T00:21:15.739Z,94.38
2022-12-17T00:24:01.626Z,94.19
2022-12-17T00:26:46.900Z,94.56
2022-12-17T00:29:32.811Z,94.38
2022-12-17T00:32:18.402Z,94.45
2022-12-17T00:35:03.933Z,93.24
2022-12-17T00:37:49.965Z,93.20
2022-12-17T00:40:35.294Z,93.50
2022-12-17T00:43:30.164Z,93.70
2022-12-17T00:46:15.761Z,94.03
2022-12-17T00:49:01.683Z,94.37
2022-12-17T00:51:47.918Z,93.28
2022-12-17T00:54:33.471Z,93.64
2022-12-17T00:57:18.841Z,93.48
2022-12-17T01:00:04.376Z,93.91
2022-12-17T01:02:49.899Z,93.38
2022-12-17T01:05:35.680Z,93.65
2022-12-17T01:08:29.034Z,93.00
2022-12-17T01:11:20.448Z,93.86
2022-12-17T01:14:06.087Z,93.99
2022-12-17T01:16:51.715Z,94.22
2022-12-17T01:19:37.198Z,93.05
2022-12-17T01:22:23.077Z,93.89
2022-12-17T01:25:08.710Z,93.33
2022-12-17T01:27:55.336Z,93.31
2022-12-17T01:30:41.658Z,92.49
2022-12-17T01:33:28.620Z,93.78
2022-12-17T01:36:15.807Z,93.61
2022-12-17T01:39:09.244Z,93.59
2022-12-17T01:41:54.652Z,92.37
2022-12-17T01:45:00.898Z,93.28
2022-12-17T01:47:50.574Z,92.57
2022-12-17T01:50:37.294Z,92.64
2022-12-17T01:53:24.723Z,92.76
2022-12-17T01:56:11.429Z,94.14
2022-12-17T01:58:58.194Z,92.44
2022-12-17T02:01:43.860Z,93.10
2022-12-17T02:04:30.648Z,92.23
2022-12-17T02:07:36.614Z,92.83
2022-12-17T02:10:48.570Z,92.97
2022-12-17T02:14:11.006Z,93.24
2022-12-17T02:17:18.598Z,93.16
2022-12-17T02:20:51.883Z,92.55
2022-12-17T02:24:08.343Z,92.44
2022-12-17T02:27:21.813Z,92.35
2022-12-17T02:30:13.047Z,92.88
2022-12-17T02:33:02.333Z,92.39
2022-12-17T02:35:59.019Z,92.65
2022-12-17T02:38:47.298Z,92.07
2022-12-17T02:41:38.176Z,92.68
2022-12-17T02:44:25.062Z,92.78
2022-12-17T02:47:15.107Z,92.13
2022-12-17T02:50:00.731Z,92.15
2022-12-17T02:52:47.116Z,91.78
2022-12-17T02:55:32.728Z,90.95
2022-12-17T02:58:18.036Z,91.35
2022-12-17T03:01:03.504Z,91.16
2022-12-17T03:03:50.534Z,91.28
2022-12-17T03:06:36.256Z,90.74
2022-12-17T03:09:29.583Z,91.15
2022-12-17T03:12:15.043Z,91.45
2022-12-17T03:15:00.645Z,90.33
2022-12-17T03:17:47.623Z,89.91
2022-12-17T03:20:33.275Z,89.78
2022-12-17T03:23:24.214Z,90.30
2022-12-17T03:26:10.292Z,90.23
2022-12-17T03:28:56.506Z,89.86
2022-12-17T03:31:42.294Z,88.68
2022-12-17T03:34:27.864Z,88.73
2022-12-17T03:37:13.185Z,89.05
2022-12-17T03:39:58.534Z,89.86
2022-12-17T03:42:44.179Z,90.68
2022-12-17T03:45:30.375Z,90.40
2022-12-17T03:48:29.358Z,90.52
2022-12-17T03:51:15.363Z,90.32
2022-12-17T03:54:00.943Z,90.81
2022-12-17T03:56:46.995Z,90.14
2022-12-17T03:59:32.618Z,90.18
2022-12-17T04:02:18.345Z,90.29
2022-12-17T04:05:04.159Z,89.55
2022-12-17T04:07:49.789Z,90.66
2022-12-17T04:10:35.211Z,90.24
2022-12-17T04:13:20.581Z,89.82
2022-12-17T04:16:06.117Z,89.39
2022-12-17T04:18:51.827Z,89.96
2022-12-17T04:21:37.076Z,89.59
2022-12-17T04:24:22.777Z,90.56
2022-12-17T04:27:08.142Z,89.92
2022-12-17T04:29:53.701Z,90.09
2022-12-17T04:32:39.180Z,89.78
2022-12-17T04:35:24.877Z,89.44
2022-12-17T04:38:10.257Z,90.75
2022-12-17T04:40:55.581Z,90.23
2022-12-17T04:43:40.857Z,89.70
2022-12-17T04:46:26.388Z,89.61
2022-12-17T04:49:11.756Z,89.58
2022-12-17T04:51:57.664Z,89.17
2022-12-17T04:54:43.351Z,89.30
2022-12-17T04:57:28.637Z,89.93
2022-12-17T05:00:13.894Z,89.29
2022-12-17T05:02:59.185Z,90.04
2022-12-17T05:05:44.899Z,90.03
2022-12-17T05:08:30.245Z,89.99
2022-12-17T05:11:21.317Z,90.25
2022-12-17T05:14:06.616Z,90.89
2022-12-17T05:16:52.177Z,90.62
2022-12-17T05:19:45.085Z,90.75
2022-12-17T05:22:30.376Z,91.16
2022-12-17T05:25:15.892Z,91.03
2022-12-17T05:28:01.302Z,89.92
2022-12-17T05:30:47.173Z,90.72
2022-12-17T05:33:32.932Z,91.51
2022-12-17T05:36:22.026Z,91.17
2022-12-17T05:39:08.294Z,91.39
2022-12-17T05:41:54.285Z,92.39
2022-12-17T05:44:39.600Z,91.50
2022-12-17T05:47:25.256Z,91.86
2022-12-17T05:50:10.542Z,91.66
2022-12-17T05:52:56.142Z,91.95
2022-12-17T05:55:42.048Z,91.22
2022-12-17T05:58:30.156Z,92.12
2022-12-17T06:01:21.779Z,92.10
2022-12-17T06:04:07.429Z,92.07
2022-12-17T06:06:53.264Z,92.21
2022-12-17T06:09:39.263Z,91.80
2022-12-17T06:12:24.915Z,91.56
2022-12-17T06:15:10.222Z,91.41
2022-12-17T06:17:56.070Z,91.64
2022-12-17T06:20:41.876Z,91.81
2022-12-17T06:23:30.303Z,92.13
2022-12-17T06:26:16.265Z,91.28
2022-12-17T06:29:02.464Z,91.74
2022-12-17T06:31:47.957Z,91.77
2022-12-17T06:34:33.584Z,91.12
2022-12-17T06:37:18.866Z,91.05
2022-12-17T06:40:04.415Z,91.06
2022-12-17T06:42:49.907Z,91.15
2022-12-17T06:45:35.285Z,91.18
2022-12-17T06:48:25.450Z,91.38
2022-12-17T06:51:14.199Z,90.89
2022-12-17T06:54:00.501Z,90.89
2022-12-17T06:56:46.774Z,90.48
2022-12-17T06:59:32.405Z,90.95
2022-12-17T07:02:18.073Z,90.20
2022-12-17T07:05:03.657Z,90.40
2022-12-17T07:07:49.376Z,89.02
2022-12-17T07:10:34.888Z,88.48
2022-12-17T07:13:27.357Z,88.49
2022-12-17T07:16:13.504Z,88.47
2022-12-17T07:18:59.267Z,87.95
2022-12-17T07:21:44.545Z,88.66
2022-12-17T07:24:30.341Z,88.36
2022-12-17T07:27:15.584Z,88.70
2022-12-17T07:30:01.272Z,88.31
2022-12-17T07:32:46.529Z,88.42
2022-12-17T07:35:32.066Z,88.17
2022-12-17T07:38:23.231Z,87.77
2022-12-17T07:41:09.234Z,88.12
2022-12-17T07:43:54.485Z,87.63
2022-12-17T07:46:40.213Z,87.49
2022-12-17T07:49:26.496Z,87.82
2022-12-17T07:52:30.382Z,88.82
2022-12-17T07:55:18.306Z,88.24
2022-12-17T07:58:03.830Z,88.75
2022-12-17T08:00:49.523Z,87.79
2022-12-17T08:03:35.575Z,87.94
2022-12-17T08:06:21.339Z,88.03
2022-12-17T08:09:07.020Z,87.31
2022-12-17T08:11:52.337Z,87.47
2022-12-17T08:14:37.942Z,87.98
2022-12-17T08:17:23.383Z,87.58
2022-12-17T08:20:08.694Z,88.20
2022-12-17T08:22:54.402Z,87.95
2022-12-17T08:25:39.930Z,88.24
2022-12-17T08:28:49.517Z,88.60
2022-12-17T08:31:32.146Z,88.26
2022-12-17T08:34:17.654Z,87.68
2022-12-17T08:37:03.265Z,87.96
2022-12-17T08:39:48.612Z,87.32
2022-12-17T08:42:33.806Z,87.08
2022-12-17T08:45:19.240Z,86.59
2022-12-17T08:48:04.603Z,85.26
2022-12-17T08:50:50.021Z,85.47
2022-12-17T08:53:35.645Z,84.76
2022-12-17T08:56:20.843Z,85.46
2022-12-17T08:59:06.516Z,83.85
2022-12-17T09:01:52.300Z,84.85
2022-12-17T09:04:37.928Z,82.90
2022-12-17T09:07:23.657Z,83.99
2022-12-17T09:10:09.130Z,83.03
2022-12-17T09:12:56.660Z,84.74
2022-12-17T09:15:45.540Z,83.24
2022-12-17T09:18:30.904Z,80.79
2022-12-17T09:21:16.566Z,80.64
2022-12-17T09:24:02.115Z,80.65
2022-12-17T09:26:47.515Z,82.66
2022-12-17T09:29:34.255Z,83.75
2022-12-17T09:32:20.099Z,81.64
2022-12-17T09:35:05.588Z,81.80
2022-12-17T09:37:52.150Z,82.25
2022-12-17T09:40:41.857Z,82.40
2022-12-17T09:43:42.401Z,82.29
2022-12-17T09:46:47.217Z,81.11
2022-12-17T09:49:38.618Z,82.22
2022-12-17T09:52:47.712Z,81.08
2022-12-17T09:55:41.747Z,83.21
2022-12-17T09:58:41.746Z,81.93
2022-12-17T10:01:39.248Z,81.60
2022-12-17T10:04:33.531Z,83.19
2022-12-17T10:07:20.671Z,82.58
2022-12-17T10:10:23.516Z,82.88
2022-12-17T10:13:13.550Z,82.05
2022-12-17T10:16:01.816Z,83.40
2022-12-17T10:18:48.965Z,82.24
2022-12-17T10:21:38.010Z,83.63
2022-12-17T10:24:28.320Z,82.41
2022-12-17T10:27:14.259Z,82.30
2022-12-17T10:30:01.889Z,82.92
2022-12-17T10:32:48.446Z,83.46
2022-12-17T10:35:39.191Z,83.35
2022-12-17T10:38:44.885Z,82.93
2022-12-17T10:42:00.817Z,83.49
2022-12-17T10:44:56.897Z,83.94
2022-12-17T10:47:44.798Z,82.65
2022-12-17T10:50:39.655Z,83.34
2022-12-17T10:53:41.954Z,84.04
2022-12-17T10:56:43.157Z,84.80
2022-12-17T10:59:44.191Z,84.61
2022-12-17T11:02:39.270Z,85.56
2022-12-17T11:05:33.134Z,84.19
2022-12-17T11:08:20.241Z,83.90
2022-12-17T11:11:07.075Z,84.08
2022-12-17T11:14:01.592Z,84.58
2022-12-17T11:17:03.124Z,84.30
2022-12-17T11:20:13.852Z,83.74
2022-12-17T11:23:12.668Z,83.98
2022-12-17T11:26:02.069Z,82.92
2022-12-17T11:28:49.070Z,84.01
2022-12-17T11:31:37.261Z,84.24
2022-12-17T11:34:34.023Z,82.43
2022-12-17T11:37:39.779Z,83.00
2022-12-17T11:40:35.853Z,82.69
2022-12-17T11:43:40.059Z,83.19
2022-12-17T11:46:41.788Z,84.08
2022-12-17T11:49:53.586Z,84.08
2022-12-17T11:52:59.879Z,84.07
2022-12-17T11:56:05.615Z,82.89
2022-12-17T11:58:56.707Z,83.31
2022-12-17T12:01:58.734Z,81.56
2022-12-17T12:05:15.786Z,82.55
2022-12-17T12:08:09.708Z,83.31
2022-12-17T12:11:06.201Z,83.56
2022-12-17T12:14:05.981Z,84.80
2022-12-17T12:17:00.718Z,83.67
2022-12-17T12:20:00.484Z,85.20
2022-12-17T12:22:51.636Z,84.38
2022-12-17T12:25:43.099Z,84.38
2022-12-17T12:28:47.426Z,84.60
2022-12-17T12:31:57.001Z,85.65
2022-12-17T12:34:48.648Z,85.39
2022-12-17T12:37:37.330Z,85.51
2022-12-17T12:40:41.350Z,85.57
2022-12-17T12:43:47.554Z,86.54
2022-12-17T12:47:00.342Z,84.90
2022-12-17T12:50:03.421Z,84.92
2022-12-17T12:52:50.288Z,85.69
2022-12-17T12:55:35.936Z,86.18
2022-12-17T12:58:24.204Z,86.84
2022-12-17T13:01:09.447Z,86.78
2022-12-17T13:04:03.849Z,86.07
2022-12-17T13:06:52.774Z,86.19
2022-12-17T13:09:23.667Z,87.45
2022-12-17T13:11:57.348Z,88.11
2022-12-17T13:14:31.688Z,88.43
2022-12-17T13:17:07.547Z,87.88
2022-12-17T13:19:40.503Z,88.76
2022-12-17T13:22:31.803Z,87.92
2022-12-17T13:25:31.193Z,88.42
2022-12-17T13:27:58.198Z,88.43
2022-12-17T13:30:35.680Z,88.96
2022-12-17T13:33:05.350Z,88.69
2022-12-17T13:35:49.896Z,88.48
2022-12-17T13:38:27.348Z,88.66
2022-12-17T13:40:57.053Z,88.19
2022-12-17T13:43:31.141Z,88.61
2022-12-17T13:45:58.060Z,89.17
2022-12-17T13:48:28.230Z,88.71
2022-12-17T13:51:00.119Z,89.46
2022-12-17T13:53:28.817Z,88.56
2022-12-17T13:55:58.267Z,89.42
2022-12-17T13:58:31.514Z,90.11
2022-12-17T14:01:26.542Z,90.04
2022-12-17T14:04:06.159Z,90.41
2022-12-17T14:06:37.367Z,90.05
2022-12-17T14:09:04.899Z,88.29
2022-12-17T14:11:52.062Z,89.05
2022-12-17T14:14:32.943Z,89.03
2022-12-17T14:17:00.707Z,89.86
2022-12-17T14:19:29.740Z,90.04
2022-12-17T14:21:57.459Z,90.01
2022-12-17T14:24:29.511Z,90.22
2022-12-17T14:27:00.470Z,90.01
2022-12-17T14:29:32.747Z,89.71
2022-12-17T14:32:02.952Z,89.71
2022-12-17T14:34:41.363Z,90.46
2022-12-17T14:37:18.632Z,89.58
2022-12-17T14:39:48.187Z,90.14
2022-12-17T14:42:32.661Z,90.67
2022-12-17T14:45:01.112Z,89.52
2022-12-17T14:47:37.060Z,90.29
2022-12-17T14:50:12.870Z,90.13
2022-12-17T14:52:44.055Z,89.63
2022-12-17T14:55:28.315Z,90.04
2022-12-17T14:58:18.711Z,90.07
2022-12-17T15:00:47.893Z,88.53
2022-12-17T15:03:17.901Z,88.98
2022-12-17T15:05:49.207Z,89.28
2022-12-17T15:08:16.229Z,88.26
2022-12-17T15:10:43.194Z,89.38
2022-12-17T15:13:10.105Z,89.16
2022-12-17T15:15:37.052Z,89.82
2022-12-17T15:18:04.049Z,88.93
2022-12-17T15:20:31.431Z,90.06
2022-12-17T15:22:58.320Z,88.79
2022-12-17T15:25:25.222Z,88.64
2022-12-17T15:27:52.208Z,88.77
2022-12-17T15:30:19.383Z,89.40
2022-12-17T15:32:46.716Z,89.20
2022-12-17T15:35:14.645Z,90.19
2022-12-17T15:37:41.516Z,89.96
2022-12-17T15:40:12.207Z,90.00
2022-12-17T15:43:02.944Z,89.89
2022-12-17T15:45:32.917Z,90.16
2022-12-17T15:47:59.926Z,89.94
2022-12-17T15:50:27.381Z,89.68
2022-12-17T15:52:54.300Z,89.75
2022-12-17T15:55:21.558Z,89.00
2022-12-17T15:57:48.446Z,89.96
2022-12-17T16:00:15.704Z,89.30
2022-12-17T16:02:42.839Z,89.85
2022-12-17T16:05:10.442Z,88.98
2022-12-17T16:07:38.271Z,89.38
2022-12-17T16:10:06.815Z,88.92
2022-12-17T16:12:33.969Z,89.71
2022-12-17T16:15:00.906Z,89.92
2022-12-17T16:17:27.893Z,89.95
2022-12-17T16:19:54.870Z,89.74
2022-12-17T16:22:22.265Z,89.46
2022-12-17T16:24:49.242Z,88.90
2022-12-17T16:27:18.382Z,88.70
2022-12-17T16:29:47.097Z,88.99
2022-12-17T16:32:15.258Z,88.60
2022-12-17T16:34:42.191Z,89.04
2022-12-17T16:37:09.323Z,89.05
2022-12-17T16:39:36.287Z,90.00
2022-12-17T16:42:03.389Z,89.69
2022-12-17T16:44:30.280Z,89.42
2022-12-17T16:46:57.272Z,89.00
2022-12-17T16:49:26.828Z,89.45
2022-12-17T16:51:55.506Z,89.73
2022-12-17T16:54:27.436Z,89.53
2022-12-17T16:56:55.977Z,89.81
2022-12-17T16:59:23.735Z,89.48
2022-12-17T17:01:52.536Z,89.96
2022-12-17T17:04:23.047Z,89.41
2022-12-17T17:06:54.475Z,89.06
2022-12-17T17:09:22.723Z,89.56
2022-12-17T17:11:52.000Z,89.56
2022-12-17T17:14:20.222Z,90.72
2022-12-17T17:16:49.154Z,90.24
2022-12-17T17:19:16.292Z,89.51
2022-12-17T17:21:50.033Z,89.77
2022-12-17T17:24:21.237Z,90.02
2022-12-17T17:26:49.909Z,89.83
2022-12-17T17:29:17.260Z,89.34
2022-12-17T17:34:31.134Z,88.66
2022-12-17T17:36:58.050Z,89.14
2022-12-17T17:39:25.098Z,88.91
2022-12-17T17:41:52.248Z,88.68
2022-12-17T17:44:19.191Z,88.97
2022-12-17T17:46:46.246Z,88.29
2022-12-17T17:49:13.226Z,88.09
2022-12-17T17:54:29.266Z,88.12
2022-12-17T17:56:56.356Z,88.52
2022-12-17T17:59:29.389Z,88.50
2022-12-17T18:01:58.274Z,88.32
2022-12-17T18:04:25.312Z,89.19
2022-12-17T18:07:23.799Z,89.26
2022-12-17T18:09:39.898Z,89.72
2022-12-17T18:12:27.003Z,89.42
2022-12-17T18:17:41.003Z,89.38
2022-12-17T18:20:09.898Z,89.39
2022-12-17T18:22:37.401Z,89.48
2022-12-17T18:25:05.497Z,88.91
2022-12-17T18:27:33.308Z,89.17
2022-12-17T18:30:00.273Z,89.23
2022-12-17T18:32:27.300Z,88.66
2022-12-17T18:34:55.632Z,88.91
2022-12-17T18:37:22.790Z,88.97
2022-12-17T18:39:49.960Z,88.73
2022-12-17T18:42:35.622Z,88.75
2022-12-17T18:45:02.804Z,88.12
2022-12-17T18:47:30.033Z,88.64
2022-12-17T18:49:57.367Z,88.83
2022-12-17T18:52:25.178Z,89.09
2022-12-17T18:54:52.167Z,88.51
2022-12-17T18:57:20.359Z,89.29
2022-12-17T18:59:47.303Z,88.75
2022-12-17T19:02:15.735Z,89.24
2022-12-17T19:04:43.215Z,88.82
2022-12-17T19:07:10.976Z,89.22
2022-12-17T19:09:39.724Z,89.48
2022-12-17T19:12:09.443Z,89.24
2022-12-17T19:14:36.998Z,88.79
2022-12-17T19:17:04.335Z,89.49
2022-12-17T19:19:31.324Z,89.51
2022-12-17T19:22:01.361Z,89.98
2022-12-17T19:24:28.523Z,89.50
2022-12-17T19:26:55.822Z,89.79
2022-12-17T19:29:24.511Z,89.50
2022-12-17T19:31:51.811Z,89.26
2022-12-17T19:34:19.753Z,89.34
2022-12-17T19:36:47.748Z,89.88
2022-12-17T19:39:17.613Z,89.72
2022-12-17T19:41:46.164Z,89.71
2022-12-17T19:44:16.783Z,90.34
2022-12-17T19:46:44.322Z,90.00
2022-12-17T19:49:12.788Z,89.79
2022-12-17T19:51:44.484Z,90.61
2022-12-17T19:54:15.224Z,90.06
2022-12-17T19:56:44.997Z,89.88
2022-12-17T19:59:13.128Z,89.91
2022-12-17T20:01:45.748Z,89.80
2022-12-17T20:04:15.093Z,89.58
2022-12-17T20:06:43.564Z,89.54
2022-12-17T20:09:10.820Z,89.62
2022-12-17T20:11:37.916Z,89.70
2022-12-17T20:14:09.174Z,89.36
2022-12-17T20:16:42.590Z,89.90
2022-12-17T20:19:16.968Z,89.98
2022-12-17T20:21:43.958Z,90.27
2022-12-17T20:24:12.388Z,90.13
2022-12-17T20:26:40.690Z,89.35
2022-12-17T20:29:08.200Z,90.38
2022-12-17T20:31:35.785Z,89.86
2022-12-17T20:34:04.799Z,89.90
2022-12-17T20:36:32.270Z,89.74
2022-12-17T20:38:59.393Z,89.88
2022-12-17T20:41:28.732Z,89.54
2022-12-17T20:43:56.572Z,89.01
2022-12-17T20:46:25.523Z,88.82
2022-12-17T20:48:53.723Z,88.41
2022-12-17T20:51:23.628Z,88.54
2022-12-17T20:53:51.193Z,88.36
2022-12-17T20:56:21.453Z,88.29
2022-12-17T20:58:53.133Z,88.09
2022-12-17T21:01:22.567Z,88.02
2022-12-17T21:03:51.409Z,87.99
2022-12-17T21:06:22.535Z,87.48
2022-12-17T21:08:52.825Z,87.28
2022-12-17T21:11:24.508Z,87.71
2022-12-17T21:13:52.601Z,87.98
2022-12-17T21:16:23.640Z,88.17
2022-12-17T21:18:54.858Z,87.56
2022-12-17T21:21:28.068Z,87.48
2022-12-17T21:23:56.077Z,88.08
2022-12-17T21:26:26.229Z,88.15
2022-12-17T21:28:57.417Z,88.15
2022-12-17T21:31:33.800Z,88.17
2022-12-17T21:34:03.358Z,87.64
2022-12-17T21:36:32.996Z,87.43
2022-12-17T21:39:00.947Z,87.97
2022-12-17T21:41:32.526Z,88.32
2022-12-17T21:44:02.494Z,87.59
2022-12-17T21:46:30.444Z,87.73
2022-12-17T21:49:00.392Z,87.68
2022-12-17T21:51:29.112Z,88.34
2022-12-17T21:53:59.180Z,87.76
2022-12-17T21:56:26.795Z,88.43
2022-12-17T21:59:01.252Z,88.53
2022-12-17T22:01:32.090Z,88.10
2022-12-17T22:04:02.870Z,87.97
2022-12-17T22:06:40.787Z,87.98
2022-12-17T22:09:27.893Z,87.07
2022-12-17T22:12:20.266Z,86.88
2022-12-17T22:14:47.687Z,87.14
2022-12-17T22:17:16.352Z,87.23
2022-12-17T22:19:43.351Z,87.67
2022-12-17T22:22:10.320Z,87.96
2022-12-17T22:24:37.268Z,87.02
2022-12-17T22:27:08.801Z,86.86
2022-12-17T22:29:55.760Z,87.78
2022-12-17T22:32:41.170Z,87.53
2022-12-17T22:38:04.261Z,87.96
2022-12-17T22:40:06.207Z,86.98
2022-12-17T22:44:33.955Z,86.82
2022-12-17T22:44:38.994Z,86.40
2022-12-17T22:46:17.151Z,86.52
2022-12-17T22:48:44.295Z,86.37
2022-12-17T22:51:14.126Z,86.86
2022-12-17T22:53:50.679Z,86.64
2022-12-17T22:56:22.520Z,86.29
2022-12-17T22:59:06.347Z,86.81
2022-12-17T23:01:35.285Z,86.08
2022-12-17T23:04:03.806Z,86.26
2022-12-17T23:06:30.834Z,86.13
2022-12-17T23:08:59.249Z,86.08
2022-12-17T23:11:29.222Z,86.18
2022-12-17T23:13:56.645Z,86.46
2022-12-17T23:16:24.159Z,86.09
2022-12-17T23:18:52.077Z,85.93
2022-12-17T23:21:24.069Z,86.00
2022-12-17T23:23:52.405Z,85.86
2022-12-17T23:26:37.918Z,85.65
2022-12-17T23:29:08.336Z,85.79
2022-12-17T23:31:38.521Z,86.12
2022-12-17T23:34:05.734Z,86.32
2022-12-17T23:36:33.173Z,86.65
2022-12-17T23:39:00.491Z,86.12
2022-12-17T23:41:30.444Z,84.89
2022-12-17T23:43:58.488Z,85.26
2022-12-17T23:46:27.638Z,86.08
2022-12-17T23:48:55.240Z,85.79
2022-12-17T23:51:24.176Z,85.72
2022-12-17T23:53:51.134Z,86.47
2022-12-17T23:56:24.083Z,85.67
2022-12-17T23:58:56.761Z,86.26
